Time;durP1;ratioP1;P1;durP2;ratioP2;P2;SDS_P1;SDS_P2;PMS_P1;PMS_P2;Temp;Humidity;BMP_temperature;BMP_pressure;BME280_temperature;BME280_humidity;BME280_pressure;Samples;Min_cycle;Max_cycle;Signal;HPM_P1;HPM_P2
2023/05/09 00:02:21;;;;;;;;;;;;;;;;;;5072919;28;19982;-67
2023/05/09 00:04:48;;;;;;;;;;;;;;;;;;5072809;28;19990;-67
2023/05/09 00:07:15;;;;;;;;;;;;;;;;;;5072825;28;20403;-67
2023/05/09 00:09:42;;;;;;;;;;;;;;;;;;5071389;28;19979;-67
2023/05/09 00:12:11;;;;;;;;;;;;;;;;;;5072219;28;20334;-67
2023/05/09 00:14:39;;;;;;;;;;;;;;;;;;5072420;28;19978;-66
2023/05/09 00:17:06;;;;;;;;;;;;;;;;;;5073253;28;19925;-67
2023/05/09 00:19:33;;;;;;;;;;;;;;;;;;5072539;28;20448;-67
2023/05/09 00:22:00;;;;;;;;;;;;;;;;;;5072531;28;19925;-67
2023/05/09 00:24:27;;;;;;;;;;;;;;;;;;5071392;28;19928;-67
2023/05/09 00:26:54;;;;;;;;;;;;;;;;;;5072798;28;19924;-67
2023/05/09 00:29:21;;;;;;;;;;;;;;;;;;5055904;28;19935;-67
2023/05/09 00:31:48;;;;;;;;;;;;;;;;;;5070804;28;19971;-67
2023/05/09 00:34:15;;;;;;;;;;;;;;;;;;5071398;28;19979;-67
2023/05/09 00:36:42;;;;;;;;;;;;;;;;;;5072535;28;19924;-67
2023/05/09 00:39:09;;;;;;;;;;;;;;;;;;5072469;28;19970;-67
2023/05/09 00:41:36;;;;;;;;;;;;;;;;;;5072069;28;19924;-67
2023/05/09 00:44:03;;;;;;;;;;;;;;;;;;5072025;28;19925;-67
2023/05/09 00:46:30;;;;;;;;;;;;;;;;;;5071429;28;19970;-67
2023/05/09 00:48:57;;;;;;;;;;;;;;;;;;5071064;28;19959;-67
2023/05/09 00:51:24;;;;;;;;;;;;;;;;;;5075845;28;19925;-66
2023/05/09 00:53:51;;;;;;;;;;;;;;;;;;5072937;28;19936;-66
2023/05/09 00:56:18;;;;;;;;;;;;;;;;;;5072726;28;19979;-67
2023/05/09 00:58:45;;;;;;;;;;;;;;;;;;5073064;28;19994;-66
2023/05/09 01:01:12;;;;;;;;;;;;;;;;;;5071228;28;19978;-66
2023/05/09 01:03:40;;;;;;;;;;;;;;;;;;5072127;28;19947;-65
2023/05/09 01:06:07;;;;;;;;;;;;;;;;;;5072093;28;19977;-66
2023/05/09 01:08:34;;;;;;;;;;;;;;;;;;5076318;28;20371;-66
2023/05/09 01:11:01;;;;;;;;;;;;;;;;;;5072072;28;20436;-66
2023/05/09 01:13:28;;;;;;;;;;;;;;;;;;5071113;28;19928;-66
2023/05/09 01:15:55;;;;;;;;;;;;;;;;;;5070978;28;19978;-66
2023/05/09 01:18:22;;;;;;;;;;;;;;;;;;5072218;28;19960;-65
2023/05/09 01:20:49;;;;;;;;;;;;;;;;;;5071760;28;20009;-65
2023/05/09 01:23:17;;;;;;;;;;;;;;;;;;5070867;28;19924;-66
2023/05/09 01:25:44;;;;;;;;;;;;;;;;;;5072539;28;20295;-66
2023/05/09 01:28:11;;;;;;;;;;;;;;;;;;5068964;28;19935;-66
2023/05/09 01:30:38;;;;;;;;;;;;;;;;;;5070769;28;20337;-66
2023/05/09 01:33:05;;;;;;;;;;;;;;;;;;5072040;28;19971;-66
2023/05/09 01:35:32;;;;;;;;;;;;;;;;;;5071744;28;19924;-66
2023/05/09 01:37:59;;;;;;;;;;;;;;;;;;5074897;28;20013;-65
2023/05/09 01:40:26;;;;;;;;;;;;;;;;;;5076300;28;19924;-66
2023/05/09 01:42:54;;;;;;;;;;;;;;;;;;5076795;28;19955;-66
2023/05/09 01:45:21;;;;;;;;;;;;;;;;;;5074453;28;19924;-65
2023/05/09 01:47:48;;;;;;;;;;;;;;;;;;5075991;28;19939;-66
2023/05/09 01:50:15;;;;;;;;;;;;;;;;;;5076041;28;19924;-65
2023/05/09 01:52:43;;;;;;;;;;;;;;;;;;5075812;28;19929;-66
2023/05/09 01:55:10;;;;;;;;;;;;;;;;;;5074205;28;19924;-65
2023/05/09 01:57:37;;;;;;;;;;;;;;;;;;5075283;28;19990;-66
2023/05/09 02:00:06;;;;;;;;;;;;;;;;;;5075115;28;19948;-67
2023/05/09 02:02:33;;;;;;;;;;;;;;;;;;5074963;28;19932;-66
2023/05/09 02:05:04;;;;;;;;;;;;;;;;;;5075242;28;20361;-66
2023/05/09 02:07:31;;;;;;;;;;;;;;;;;;5074556;28;19950;-66
2023/05/09 02:09:58;;;;;;;;;;;;;;;;;;5067786;28;19924;-66
2023/05/09 02:12:25;;;;;;;;;;;;;;;;;;5055210;28;20077;-66
2023/05/09 02:14:52;;;;;;;;;;;;;;;;;;5057044;28;19931;-66
2023/05/09 02:17:20;;;;;;;;;;;;;;;;;;5075691;28;19924;-66
2023/05/09 02:19:47;;;;;;;;;;;;;;;;;;5075338;28;19947;-66
2023/05/09 02:22:14;;;;;;;;;;;;;;;;;;5075340;28;19924;-66
2023/05/09 02:24:43;;;;;;;;;;;;;;;;;;5074028;28;20140;-66
2023/05/09 02:27:10;;;;;;;;;;;;;;;;;;5074799;28;19940;-67
2023/05/09 02:29:39;;;;;;;;;;;;;;;;;;5064985;28;19931;-66
2023/05/09 02:32:06;;;;;;;;;;;;;;;;;;5074745;28;19924;-66
2023/05/09 02:34:33;;;;;;;;;;;;;;;;;;5074566;28;19971;-66
2023/05/09 02:37:01;;;;;;;;;;;;;;;;;;5074034;28;19928;-67
2023/05/09 02:39:28;;;;;;;;;;;;;;;;;;5074966;28;20019;-66
2023/05/09 02:41:55;;;;;;;;;;;;;;;;;;5074143;28;19924;-67
2023/05/09 02:44:22;;;;;;;;;;;;;;;;;;5073305;28;19951;-66
2023/05/09 02:46:49;;;;;;;;;;;;;;;;;;5073011;28;20411;-66
2023/05/09 02:49:16;;;;;;;;;;;;;;;;;;5073840;28;19931;-66
2023/05/09 02:51:43;;;;;;;;;;;;;;;;;;5074677;28;19924;-67
2023/05/09 02:54:10;;;;;;;;;;;;;;;;;;5059914;28;19981;-67
2023/05/09 02:56:37;;;;;;;;;;;;;;;;;;5074910;28;19924;-68
2023/05/09 02:59:04;;;;;;;;;;;;;;;;;;5074465;28;19962;-66
2023/05/09 03:01:31;;;;;;;;;;;;;;;;;;5072630;28;20402;-67
2023/05/09 03:03:58;;;;;;;;;;;;;;;;;;5066539;28;20002;-67
2023/05/09 03:06:25;;;;;;;;;;;;;;;;;;5060150;28;19924;-67
2023/05/09 03:08:52;;;;;;;;;;;;;;;;;;5074010;28;20334;-67
2023/05/09 03:11:19;;;;;;;;;;;;;;;;;;5074057;28;19924;-67
2023/05/09 03:13:46;;;;;;;;;;;;;;;;;;5073825;28;19924;-67
2023/05/09 03:16:13;;;;;;;;;;;;;;;;;;5073547;28;20005;-67
2023/05/09 03:18:40;;;;;;;;;;;;;;;;;;5074069;28;19924;-67
2023/05/09 03:21:07;;;;;;;;;;;;;;;;;;5073523;28;19924;-67
2023/05/09 03:23:34;;;;;;;;;;;;;;;;;;5074557;28;19972;-67
2023/05/09 03:26:01;;;;;;;;;;;;;;;;;;5065852;28;19925;-67
2023/05/09 03:28:28;;;;;;;;;;;;;;;;;;5066065;28;19925;-65
2023/05/09 03:30:55;;;;;;;;;;;;;;;;;;5056153;28;19964;-66
2023/05/09 03:33:22;;;;;;;;;;;;;;;;;;5073459;28;19929;-66
2023/05/09 03:35:49;;;;;;;;;;;;;;;;;;5073378;28;20379;-66
2023/05/09 03:38:16;;;;;;;;;;;;;;;;;;5073228;28;20397;-66
2023/05/09 03:40:43;;;;;;;;;;;;;;;;;;5077041;28;19940;-66
2023/05/09 03:43:10;;;;;;;;;;;;;;;;;;5073179;28;19964;-66
2023/05/09 03:45:37;;;;;;;;;;;;;;;;;;5072771;28;20399;-66
2023/05/09 03:48:07;;;;;;;;;;;;;;;;;;5071977;28;19978;-68
2023/05/09 03:50:34;;;;;;;;;;;;;;;;;;5073069;28;19928;-67
2023/05/09 03:53:01;;;;;;;;;;;;;;;;;;5071444;28;19974;-67
2023/05/09 03:55:28;;;;;;;;;;;;;;;;;;5072079;28;20444;-66
2023/05/09 03:57:55;;;;;;;;;;;;;;;;;;5074370;28;19925;-66
2023/05/09 04:00:22;;;;;;;;;;;;;;;;;;5072306;28;19924;-66
2023/05/09 04:02:49;;;;;;;;;;;;;;;;;;5072168;28;19931;-66
2023/05/09 04:05:16;;;;;;;;;;;;;;;;;;5072641;28;19969;-67
2023/05/09 04:07:43;;;;;;;;;;;;;;;;;;5071048;28;19959;-67
2023/05/09 04:10:10;;;;;;;;;;;;;;;;;;5073313;28;20333;-66
2023/05/09 04:12:37;;;;;;;;;;;;;;;;;;5073056;28;19924;-67
2023/05/09 04:15:04;;;;;;;;;;;;;;;;;;5073418;28;19931;-66
2023/05/09 04:17:31;;;;;;;;;;;;;;;;;;5071531;28;20410;-66
2023/05/09 04:19:58;;;;;;;;;;;;;;;;;;5072252;28;20422;-66
2023/05/09 04:22:25;;;;;;;;;;;;;;;;;;5072804;28;19960;-66
2023/05/09 04:24:52;;;;;;;;;;;;;;;;;;5067459;28;19929;-66
2023/05/09 04:27:19;;;;;;;;;;;;;;;;;;5052502;28;19975;-66
2023/05/09 04:29:48;;;;;;;;;;;;;;;;;;5071566;28;19982;-66
2023/05/09 04:32:15;;;;;;;;;;;;;;;;;;5074950;28;19924;-66
2023/05/09 04:34:42;;;;;;;;;;;;;;;;;;5072678;28;19924;-67
2023/05/09 04:37:09;;;;;;;;;;;;;;;;;;5071405;28;20394;-67
2023/05/09 04:39:36;;;;;;;;;;;;;;;;;;5071269;28;19978;-67
2023/05/09 04:42:04;;;;;;;;;;;;;;;;;;5067512;28;19925;-66
2023/05/09 04:44:32;;;;;;;;;;;;;;;;;;5070689;28;20409;-66
2023/05/09 04:46:59;;;;;;;;;;;;;;;;;;5072006;28;19944;-67
2023/05/09 04:49:26;;;;;;;;;;;;;;;;;;5075075;28;19924;-67
2023/05/09 04:51:53;;;;;;;;;;;;;;;;;;5071762;28;19929;-66
2023/05/09 04:54:20;;;;;;;;;;;;;;;;;;5071296;28;19925;-67
2023/05/09 04:56:47;;;;;;;;;;;;;;;;;;5071784;28;19925;-66
2023/05/09 04:59:14;;;;;;;;;;;;;;;;;;5071499;28;19978;-66
2023/05/09 05:01:41;;;;;;;;;;;;;;;;;;5070935;28;19925;-66
2023/05/09 05:04:08;;;;;;;;;;;;;;;;;;5069528;28;20264;-68
2023/05/09 05:06:35;;;;;;;;;;;;;;;;;;5062885;28;19925;-67
2023/05/09 05:09:02;;;;;;;;;;;;;;;;;;5058940;28;19970;-67
2023/05/09 05:11:30;;;;;;;;;;;;;;;;;;5071846;28;19950;-67
2023/05/09 05:13:57;;;;;;;;;;;;;;;;;;5076154;28;19936;-66
2023/05/09 05:16:24;;;;;;;;;;;;;;;;;;5078054;28;20017;-67
2023/05/09 05:18:51;;;;;;;;;;;;;;;;;;5067064;28;20407;-66
2023/05/09 05:21:18;;;;;;;;;;;;;;;;;;5074079;28;19924;-66
2023/05/09 05:23:45;;;;;;;;;;;;;;;;;;5095105;28;19924;-66
2023/05/09 05:26:12;;;;;;;;;;;;;;;;;;5086574;28;19925;-68
2023/05/09 05:28:40;;;;;;;;;;;;;;;;;;5077103;28;20342;-68
2023/05/09 05:31:07;;;;;;;;;;;;;;;;;;5076983;28;19931;-66
2023/05/09 05:33:34;;;;;;;;;;;;;;;;;;5076369;28;19997;-66
2023/05/09 05:36:01;;;;;;;;;;;;;;;;;;5072955;28;19925;-66
2023/05/09 05:38:28;;;;;;;;;;;;;;;;;;5058040;28;20391;-66
2023/05/09 05:40:55;;;;;;;;;;;;;;;;;;5073939;28;19958;-66
2023/05/09 05:43:22;;;;;;;;;;;;;;;;;;5076546;28;19925;-66
2023/05/09 05:45:49;;;;;;;;;;;;;;;;;;5077459;28;19925;-67
2023/05/09 05:48:16;;;;;;;;;;;;;;;;;;5069084;28;19930;-64
2023/05/09 05:50:43;;;;;;;;;;;;;;;;;;5077948;28;20345;-64
2023/05/09 05:53:10;;;;;;;;;;;;;;;;;;5076831;28;19928;-64
2023/05/09 05:55:37;;;;;;;;;;;;;;;;;;5076798;28;19924;-63
2023/05/09 05:58:04;;;;;;;;;;;;;;;;;;5078954;28;19931;-62
2023/05/09 06:00:31;;;;;;;;;;;;;;;;;;5070184;28;19966;-63
2023/05/09 06:02:59;;;;;;;;;;;;;;;;;;5063240;28;19960;-63
2023/05/09 06:05:26;;;;;;;;;;;;;;;;;;5073180;28;19924;-63
2023/05/09 06:07:52;;;;;;;;;;;;;;;;;;5071801;28;19952;-63
2023/05/09 06:10:20;;;;;;;;;;;;;;;;;;5068974;28;20359;-62
2023/05/09 06:12:47;;;;;;;;;;;;;;;;;;5075059;28;19994;-63
2023/05/09 06:15:14;;;;;;;;;;;;;;;;;;5076843;28;20409;-63
2023/05/09 06:17:41;;;;;;;;;;;;;;;;;;5067491;28;19936;-63
2023/05/09 06:20:08;;;;;;;;;;;;;;;;;;5080885;28;20566;-63
2023/05/09 06:22:35;;;;;;;;;;;;;;;;;;5076437;28;19968;-63
2023/05/09 06:25:02;;;;;;;;;;;;;;;;;;5067698;28;19931;-63
2023/05/09 06:27:29;;;;;;;;;;;;;;;;;;5062304;28;19925;-63
2023/05/09 06:29:56;;;;;;;;;;;;;;;;;;5063377;28;19964;-65
2023/05/09 06:32:23;;;;;;;;;;;;;;;;;;5072701;28;20731;-64
2023/05/09 06:34:51;;;;;;;;;;;;;;;;;;5074742;28;19968;-64
2023/05/09 06:37:18;;;;;;;;;;;;;;;;;;5067253;28;19924;-64
2023/05/09 06:39:45;;;;;;;;;;;;;;;;;;5069644;28;20444;-65
2023/05/09 06:42:12;;;;;;;;;;;;;;;;;;5069015;28;19932;-65
2023/05/09 06:44:39;;;;;;;;;;;;;;;;;;5074917;28;19924;-66
2023/05/09 06:47:06;;;;;;;;;;;;;;;;;;5076893;28;19977;-64
2023/05/09 06:49:33;;;;;;;;;;;;;;;;;;5075174;28;20384;-64
2023/05/09 06:52:00;;;;;;;;;;;;;;;;;;5068393;28;19928;-64
2023/05/09 06:54:27;;;;;;;;;;;;;;;;;;5074050;28;20390;-65
2023/05/09 06:56:54;;;;;;;;;;;;;;;;;;5057132;28;20041;-64
2023/05/09 06:59:21;;;;;;;;;;;;;;;;;;5066907;28;19978;-65
2023/05/09 07:01:48;;;;;;;;;;;;;;;;;;5062703;28;19924;-73
2023/05/09 07:04:15;;;;;;;;;;;;;;;;;;5069270;28;19951;-63
2023/05/09 07:06:42;;;;;;;;;;;;;;;;;;5086745;28;19924;-65
2023/05/09 07:09:10;;;;;;;;;;;;;;;;;;5076810;28;19993;-65
2023/05/09 07:11:37;;;;;;;;;;;;;;;;;;5073753;28;20337;-64
2023/05/09 07:14:04;;;;;;;;;;;;;;;;;;5069364;28;19970;-64
2023/05/09 07:16:31;;;;;;;;;;;;;;;;;;5070794;28;19924;-64
2023/05/09 07:18:58;;;;;;;;;;;;;;;;;;5062861;28;21044;-63
2023/05/09 07:21:25;;;;;;;;;;;;;;;;;;5070138;28;19935;-64
2023/05/09 07:23:52;;;;;;;;;;;;;;;;;;5071135;28;20465;-64
2023/05/09 07:26:20;;;;;;;;;;;;;;;;;;5064290;28;19924;-64
2023/05/09 07:28:47;;;;;;;;;;;;;;;;;;5067870;28;20436;-64
2023/05/09 07:31:14;;;;;;;;;;;;;;;;;;5070597;28;19975;-64
2023/05/09 07:33:41;;;;;;;;;;;;;;;;;;5064703;28;19924;-64
2023/05/09 07:36:11;;;;;;;;;;;;;;;;;;5055023;28;20403;-65
2023/05/09 07:38:38;;;;;;;;;;;;;;;;;;5060617;28;20294;-63
2023/05/09 07:41:05;;;;;;;;;;;;;;;;;;5081043;28;19956;-63
2023/05/09 07:43:32;;;;;;;;;;;;;;;;;;5076254;28;20404;-63
2023/05/09 07:46:00;;;;;;;;;;;;;;;;;;5071174;28;19963;-63
2023/05/09 07:48:27;;;;;;;;;;;;;;;;;;5066956;28;20440;-63
2023/05/09 07:50:54;;;;;;;;;;;;;;;;;;5064026;28;19932;-62
2023/05/09 07:53:21;;;;;;;;;;;;;;;;;;5065889;28;19939;-62
2023/05/09 07:55:49;;;;;;;;;;;;;;;;;;5067166;28;20441;-63
2023/05/09 07:58:16;;;;;;;;;;;;;;;;;;5060350;28;19960;-62
2023/05/09 08:00:43;;;;;;;;;;;;;;;;;;5066617;28;19931;-62
2023/05/09 08:03:10;;;;;;;;;;;;;;;;;;5070357;28;19928;-63
2023/05/09 08:05:37;;;;;;;;;;;;;;;;;;5071325;28;20002;-63
2023/05/09 08:08:04;;;;;;;;;;;;;;;;;;5070915;28;19975;-64
2023/05/09 08:10:33;;;;;;;;;;;;;;;;;;5062079;28;19978;-64
2023/05/09 08:13:00;;;;;;;;;;;;;;;;;;5072484;28;20368;-60
2023/05/09 08:15:27;;;;;;;;;;;;;;;;;;5072197;28;20047;-64
2023/05/09 08:17:54;;;;;;;;;;;;;;;;;;5067566;28;20387;-63
2023/05/09 08:20:21;;;;;;;;;;;;;;;;;;5068234;28;19925;-64
2023/05/09 08:22:48;;;;;;;;;;;;;;;;;;5073798;28;20337;-63
2023/05/09 08:25:17;;;;;;;;;;;;;;;;;;5058287;28;19960;-63
2023/05/09 08:27:44;;;;;;;;;;;;;;;;;;5064194;28;19925;-62
2023/05/09 08:30:11;;;;;;;;;;;;;;;;;;5069258;28;19925;-63
2023/05/09 08:32:38;;;;;;;;;;;;;;;;;;5074633;28;20339;-63
2023/05/09 08:35:05;;;;;;;;;;;;;;;;;;5071474;28;19928;-62
2023/05/09 08:37:32;;;;;;;;;;;;;;;;;;5069124;28;19925;-62
2023/05/09 08:39:59;;;;;;;;;;;;;;;;;;5071885;28;19986;-63
2023/05/09 08:42:26;;;;;;;;;;;;;;;;;;5066851;28;20022;-63
2023/05/09 08:44:53;;;;;;;;;;;;;;;;;;5072125;28;20281;-62
2023/05/09 08:47:20;;;;;;;;;;;;;;;;;;5065423;28;20390;-62
2023/05/09 08:49:48;;;;;;;;;;;;;;;;;;5069747;28;19924;-62
2023/05/09 08:52:15;;;;;;;;;;;;;;;;;;5071264;28;20414;-62
2023/05/09 08:54:42;;;;;;;;;;;;;;;;;;5056361;28;19925;-62
2023/05/09 08:57:09;;;;;;;;;;;;;;;;;;5069235;28;19977;-62
2023/05/09 08:59:37;;;;;;;;;;;;;;;;;;5071623;28;20376;-61
2023/05/09 09:02:04;;;;;;;;;;;;;;;;;;5072195;28;19932;-62
2023/05/09 09:04:31;;;;;;;;;;;;;;;;;;5069466;28;19977;-63
2023/05/09 09:06:57;;;;;;;;;;;;;;;;;;5058112;28;19925;-62
2023/05/09 09:09:25;;;;;;;;;;;;;;;;;;5067502;28;19971;-63
2023/05/09 09:11:52;;;;;;;;;;;;;;;;;;5070708;28;19931;-62
2023/05/09 09:14:19;;;;;;;;;;;;;;;;;;5070520;28;20443;-63
2023/05/09 09:16:46;;;;;;;;;;;;;;;;;;5070167;28;19928;-63
2023/05/09 09:19:13;;;;;;;;;;;;;;;;;;5069024;28;19924;-63
2023/05/09 09:21:41;;;;;;;;;;;;;;;;;;5073785;28;19925;-63
2023/05/09 09:24:08;;;;;;;;;;;;;;;;;;5057810;28;19933;-63
2023/05/09 09:26:35;;;;;;;;;;;;;;;;;;5059507;28;19971;-64
2023/05/09 09:29:02;;;;;;;;;;;;;;;;;;5079231;28;19961;-63
2023/05/09 09:31:29;;;;;;;;;;;;;;;;;;5067859;28;19978;-63
2023/05/09 09:33:56;;;;;;;;;;;;;;;;;;5066126;28;19964;-63
2023/05/09 09:36:23;;;;;;;;;;;;;;;;;;5061868;28;19976;-63
2023/05/09 09:38:50;;;;;;;;;;;;;;;;;;5071942;28;20490;-64
2023/05/09 09:41:17;;;;;;;;;;;;;;;;;;5064125;28;19924;-64
2023/05/09 09:43:44;;;;;;;;;;;;;;;;;;5067670;28;19958;-63
2023/05/09 09:46:12;;;;;;;;;;;;;;;;;;5066478;28;20520;-63
2023/05/09 09:48:43;;;;;;;;;;;;;;;;;;5070311;28;19925;-63
2023/05/09 09:51:10;;;;;;;;;;;;;;;;;;5067865;28;19925;-63
2023/05/09 09:53:37;;;;;;;;;;;;;;;;;;5068547;28;19924;-63
2023/05/09 09:56:04;;;;;;;;;;;;;;;;;;5055268;28;19944;-63
2023/05/09 09:58:31;;;;;;;;;;;;;;;;;;5069472;28;19932;-63
2023/05/09 10:00:58;;;;;;;;;;;;;;;;;;5070311;28;19925;-63
2023/05/09 10:03:25;;;;;;;;;;;;;;;;;;5073959;28;20436;-64
2023/05/09 10:05:52;;;;;;;;;;;;;;;;;;5071555;28;19925;-64
2023/05/09 10:08:19;;;;;;;;;;;;;;;;;;5070836;28;19966;-63
2023/05/09 10:10:46;;;;;;;;;;;;;;;;;;5069226;28;19924;-65
2023/05/09 10:13:13;;;;;;;;;;;;;;;;;;5019364;28;20041;-66
2023/05/09 10:15:40;;;;;;;;;;;;;;;;;;5073867;28;19932;-65
2023/05/09 10:18:07;;;;;;;;;;;;;;;;;;5074335;28;19983;-65
2023/05/09 10:20:34;;;;;;;;;;;;;;;;;;5074179;28;19977;-65
2023/05/09 10:23:01;;;;;;;;;;;;;;;;;;5072167;28;19931;-66
2023/05/09 10:25:28;;;;;;;;;;;;;;;;;;5060284;28;19925;-65
2023/05/09 10:27:55;;;;;;;;;;;;;;;;;;5062352;28;19925;-65
2023/05/09 10:30:22;;;;;;;;;;;;;;;;;;5071981;28;19977;-64
2023/05/09 10:32:49;;;;;;;;;;;;;;;;;;5064171;28;20322;-64
2023/05/09 10:35:16;;;;;;;;;;;;;;;;;;5061727;28;19928;-64
2023/05/09 10:37:43;;;;;;;;;;;;;;;;;;5059841;28;19979;-66
2023/05/09 10:40:13;;;;;;;;;;;;;;;;;;5063682;28;19924;-67
2023/05/09 10:42:40;;;;;;;;;;;;;;;;;;5055894;28;20396;-66
2023/05/09 10:45:08;;;;;;;;;;;;;;;;;;5062263;28;19932;-66
2023/05/09 10:47:35;;;;;;;;;;;;;;;;;;5059611;28;20426;-66
2023/05/09 10:50:02;;;;;;;;;;;;;;;;;;5061559;28;19982;-66
2023/05/09 10:52:29;;;;;;;;;;;;;;;;;;5065693;28;19959;-67
2023/05/09 10:54:56;;;;;;;;;;;;;;;;;;5061205;28;20046;-67
2023/05/09 10:57:23;;;;;;;;;;;;;;;;;;5060971;28;19947;-66
2023/05/09 10:59:50;;;;;;;;;;;;;;;;;;5067730;28;20381;-66
2023/05/09 11:02:17;;;;;;;;;;;;;;;;;;5063802;28;19954;-66
2023/05/09 11:04:44;;;;;;;;;;;;;;;;;;5056769;28;19932;-67
2023/05/09 11:07:11;;;;;;;;;;;;;;;;;;5065102;28;19978;-67
2023/05/09 11:09:40;;;;;;;;;;;;;;;;;;5061722;28;19928;-67
2023/05/09 11:12:07;;;;;;;;;;;;;;;;;;5057718;28;19998;-67
2023/05/09 11:14:34;;;;;;;;;;;;;;;;;;5053225;28;20442;-67
2023/05/09 11:17:01;;;;;;;;;;;;;;;;;;5058635;28;19925;-71
2023/05/09 11:19:28;;;;;;;;;;;;;;;;;;5066503;28;19925;-71
2023/05/09 11:21:55;;;;;;;;;;;;;;;;;;5058928;28;20719;-70
2023/05/09 11:24:22;;;;;;;;;;;;;;;;;;5057322;28;19933;-69
2023/05/09 11:26:49;;;;;;;;;;;;;;;;;;5059321;28;20320;-64
2023/05/09 11:29:16;;;;;;;;;;;;;;;;;;5068794;28;19972;-67
2023/05/09 11:31:43;;;;;;;;;;;;;;;;;;5061325;28;19966;-66
2023/05/09 11:34:10;;;;;;;;;;;;;;;;;;5053253;28;19929;-66
2023/05/09 11:36:37;;;;;;;;;;;;;;;;;;5058380;28;19978;-68
2023/05/09 11:39:05;;;;;;;;;;;;;;;;;;5071907;28;19925;-68
2023/05/09 11:41:32;;;;;;;;;;;;;;;;;;5069575;28;19924;-68
2023/05/09 11:43:59;;;;;;;;;;;;;;;;;;5065566;28;19939;-68
2023/05/09 11:46:26;;;;;;;;;;;;;;;;;;5066908;28;19976;-67
2023/05/09 11:48:54;;;;;;;;;;;;;;;;;;5077109;28;19932;-66
2023/05/09 11:51:21;;;;;;;;;;;;;;;;;;5066163;28;20272;-66
2023/05/09 11:53:48;;;;;;;;;;;;;;;;;;5065622;28;19924;-66
2023/05/09 11:56:15;;;;;;;;;;;;;;;;;;5063833;28;19975;-65
2023/05/09 11:58:42;;;;;;;;;;;;;;;;;;5058755;28;19924;-65
2023/05/09 12:01:09;;;;;;;;;;;;;;;;;;5072451;28;19924;-65
2023/05/09 12:03:36;;;;;;;;;;;;;;;;;;5073519;28;19928;-67
2023/05/09 12:06:03;;;;;;;;;;;;;;;;;;5070846;28;19924;-67
2023/05/09 12:08:30;;;;;;;;;;;;;;;;;;5072751;28;19924;-66
2023/05/09 12:10:57;;;;;;;;;;;;;;;;;;5071210;28;19977;-66
2023/05/09 12:13:25;;;;;;;;;;;;;;;;;;5072063;28;20250;-66
2023/05/09 12:15:52;;;;;;;;;;;;;;;;;;5070782;28;20007;-66
2023/05/09 12:18:19;;;;;;;;;;;;;;;;;;5066819;28;19960;-67
2023/05/09 12:20:46;;;;;;;;;;;;;;;;;;5071115;28;19979;-68
2023/05/09 12:23:13;;;;;;;;;;;;;;;;;;5070712;28;19925;-68
2023/05/09 12:25:40;;;;;;;;;;;;;;;;;;5065516;28;19930;-67
2023/05/09 12:28:07;;;;;;;;;;;;;;;;;;5077279;28;19935;-67
2023/05/09 12:30:34;;;;;;;;;;;;;;;;;;5069493;28;19977;-67
2023/05/09 12:33:01;;;;;;;;;;;;;;;;;;5067089;28;20001;-66
2023/05/09 12:35:28;;;;;;;;;;;;;;;;;;5066069;28;19994;-67
2023/05/09 12:37:56;;;;;;;;;;;;;;;;;;5062883;28;20395;-66
2023/05/09 12:40:23;;;;;;;;;;;;;;;;;;5071715;28;20005;-67
2023/05/09 12:42:52;;;;;;;;;;;;;;;;;;5079587;28;20390;-67
2023/05/09 12:45:19;;;;;;;;;;;;;;;;;;5061853;28;19947;-67
2023/05/09 12:47:46;;;;;;;;;;;;;;;;;;5065824;28;20009;-67
2023/05/09 12:50:13;;;;;;;;;;;;;;;;;;5072015;28;19928;-66
2023/05/09 12:52:40;;;;;;;;;;;;;;;;;;5075272;28;20326;-66
2023/05/09 12:55:07;;;;;;;;;;;;;;;;;;5080426;28;20391;-67
2023/05/09 12:57:34;;;;;;;;;;;;;;;;;;5073610;28;19924;-67
2023/05/09 13:00:02;;;;;;;;;;;;;;;;;;5071677;28;20379;-66
2023/05/09 13:02:29;;;;;;;;;;;;;;;;;;5072015;28;19925;-67
2023/05/09 13:04:56;;;;;;;;;;;;;;;;;;5069394;28;19936;-67
2023/05/09 13:07:23;;;;;;;;;;;;;;;;;;5071607;28;20396;-67
2023/05/09 13:09:50;;;;;;;;;;;;;;;;;;5070920;28;19936;-66
2023/05/09 13:12:19;;;;;;;;;;;;;;;;;;5066773;28;20415;-68
2023/05/09 13:14:46;;;;;;;;;;;;;;;;;;5064423;28;19947;-69
2023/05/09 13:17:13;;;;;;;;;;;;;;;;;;5071011;28;19967;-61
2023/05/09 13:19:40;;;;;;;;;;;;;;;;;;5072609;28;20299;-69
2023/05/09 13:22:07;;;;;;;;;;;;;;;;;;5071632;28;19970;-67
2023/05/09 13:24:34;;;;;;;;;;;;;;;;;;5059991;28;20391;-67
2023/05/09 13:27:01;;;;;;;;;;;;;;;;;;5070351;28;19928;-66
2023/05/09 13:29:28;;;;;;;;;;;;;;;;;;5059679;28;20430;-67
2023/05/09 13:31:55;;;;;;;;;;;;;;;;;;5058565;28;19928;-67
2023/05/09 13:34:22;;;;;;;;;;;;;;;;;;5091955;28;19964;-67
2023/05/09 13:36:49;;;;;;;;;;;;;;;;;;5078945;28;20379;-67
2023/05/09 13:39:16;;;;;;;;;;;;;;;;;;5074372;28;19939;-67
2023/05/09 13:41:43;;;;;;;;;;;;;;;;;;5065318;28;19929;-68
2023/05/09 13:44:11;;;;;;;;;;;;;;;;;;5073165;28;19928;-67
2023/05/09 13:46:38;;;;;;;;;;;;;;;;;;5086358;28;20353;-67
2023/05/09 13:49:05;;;;;;;;;;;;;;;;;;5072626;28;19925;-66
2023/05/09 13:51:32;;;;;;;;;;;;;;;;;;5064373;28;20390;-66
2023/05/09 13:53:59;;;;;;;;;;;;;;;;;;5072503;28;19931;-66
2023/05/09 13:56:26;;;;;;;;;;;;;;;;;;5064818;28;19955;-68
2023/05/09 13:58:53;;;;;;;;;;;;;;;;;;5069981;28;20039;-67
2023/05/09 14:01:20;;;;;;;;;;;;;;;;;;5071056;28;20397;-67
2023/05/09 14:03:47;;;;;;;;;;;;;;;;;;5070696;28;19924;-67
2023/05/09 14:06:14;;;;;;;;;;;;;;;;;;5060241;28;20346;-67
2023/05/09 14:08:41;;;;;;;;;;;;;;;;;;5062296;28;19982;-66
2023/05/09 14:11:08;;;;;;;;;;;;;;;;;;5068834;28;20287;-67
2023/05/09 14:13:35;;;;;;;;;;;;;;;;;;5072812;28;20383;-67
2023/05/09 14:16:03;;;;;;;;;;;;;;;;;;5071041;28;19924;-66
2023/05/09 14:18:30;;;;;;;;;;;;;;;;;;5064577;28;20282;-66
2023/05/09 14:20:57;;;;;;;;;;;;;;;;;;5070466;28;19924;-68
2023/05/09 14:23:24;;;;;;;;;;;;;;;;;;5063193;28;19924;-67
2023/05/09 14:25:51;;;;;;;;;;;;;;;;;;5071609;28;20428;-66
2023/05/09 14:28:18;;;;;;;;;;;;;;;;;;5072780;28;19925;-66
2023/05/09 14:30:45;;;;;;;;;;;;;;;;;;5067464;28;19924;-67
2023/05/09 14:33:13;;;;;;;;;;;;;;;;;;5071017;28;20312;-68
2023/05/09 14:35:40;;;;;;;;;;;;;;;;;;5072395;28;19932;-67
2023/05/09 14:38:07;;;;;;;;;;;;;;;;;;5073544;28;19924;-66
2023/05/09 14:40:34;;;;;;;;;;;;;;;;;;5070491;28;19925;-67
2023/05/09 14:43:01;;;;;;;;;;;;;;;;;;5070850;28;19932;-67
2023/05/09 14:45:28;;;;;;;;;;;;;;;;;;5073977;28;19931;-67
2023/05/09 14:47:55;;;;;;;;;;;;;;;;;;5064970;28;19964;-67
2023/05/09 14:50:23;;;;;;;;;;;;;;;;;;5067626;28;19924;-67
2023/05/09 14:52:50;;;;;;;;;;;;;;;;;;5066897;28;19924;-67
2023/05/09 14:55:17;;;;;;;;;;;;;;;;;;5067470;28;20379;-68
2023/05/09 14:57:44;;;;;;;;;;;;;;;;;;5072598;28;19967;-67
2023/05/09 15:00:11;;;;;;;;;;;;;;;;;;5073384;28;19928;-68
2023/05/09 15:02:38;;;;;;;;;;;;;;;;;;5069631;28;19932;-67
2023/05/09 15:05:05;;;;;;;;;;;;;;;;;;5068560;28;19931;-67
2023/05/09 15:07:32;;;;;;;;;;;;;;;;;;5067864;28;19925;-66
2023/05/09 15:10:00;;;;;;;;;;;;;;;;;;5070984;28;20437;-67
2023/05/09 15:12:27;;;;;;;;;;;;;;;;;;5069756;28;19928;-67
2023/05/09 15:14:54;;;;;;;;;;;;;;;;;;5067475;28;20355;-67
2023/05/09 15:17:21;;;;;;;;;;;;;;;;;;5062375;28;19929;-67
2023/05/09 15:19:48;;;;;;;;;;;;;;;;;;5075211;28;19928;-67
2023/05/09 15:22:15;;;;;;;;;;;;;;;;;;5075474;28;20745;-67
2023/05/09 15:24:43;;;;;;;;;;;;;;;;;;5065991;28;19970;-67
2023/05/09 15:27:10;;;;;;;;;;;;;;;;;;5072396;28;19924;-68
2023/05/09 15:29:37;;;;;;;;;;;;;;;;;;5073387;28;19963;-68
2023/05/09 15:32:04;;;;;;;;;;;;;;;;;;5073808;28;20294;-68
2023/05/09 15:34:31;;;;;;;;;;;;;;;;;;5069196;28;19971;-66
2023/05/09 15:36:58;;;;;;;;;;;;;;;;;;5060866;28;19925;-67
2023/05/09 15:39:25;;;;;;;;;;;;;;;;;;5073139;28;19970;-67
2023/05/09 15:41:53;;;;;;;;;;;;;;;;;;5064076;28;19931;-67
2023/05/09 15:44:20;;;;;;;;;;;;;;;;;;5070679;28;19924;-66
2023/05/09 15:46:47;;;;;;;;;;;;;;;;;;5069516;28;19925;-68
2023/05/09 15:49:14;;;;;;;;;;;;;;;;;;5073356;28;19985;-68
2023/05/09 15:51:42;;;;;;;;;;;;;;;;;;5080701;28;19924;-66
2023/05/09 15:54:09;;;;;;;;;;;;;;;;;;5093435;28;19924;-66
2023/05/09 15:56:36;;;;;;;;;;;;;;;;;;5079242;28;19978;-67
2023/05/09 15:59:03;;;;;;;;;;;;;;;;;;5073592;28;20379;-66
2023/05/09 16:01:30;;;;;;;;;;;;;;;;;;5071169;28;19924;-66
2023/05/09 16:03:57;;;;;;;;;;;;;;;;;;5068743;28;20372;-66
2023/05/09 16:06:24;;;;;;;;;;;;;;;;;;5053300;28;20367;-67
2023/05/09 16:08:52;;;;;;;;;;;;;;;;;;5080280;28;19928;-66
2023/05/09 16:11:20;;;;;;;;;;;;;;;;;;5078638;28;20019;-67
2023/05/09 16:13:47;;;;;;;;;;;;;;;;;;5065744;28;19971;-67
2023/05/09 16:16:14;;;;;;;;;;;;;;;;;;5067285;28;19931;-67
2023/05/09 16:18:41;;;;;;;;;;;;;;;;;;5062660;28;19924;-67
2023/05/09 16:21:08;;;;;;;;;;;;;;;;;;5073590;28;20010;-69
2023/05/09 16:23:35;;;;;;;;;;;;;;;;;;5065385;28;19968;-70
2023/05/09 16:26:02;;;;;;;;;;;;;;;;;;5069486;28;19986;-69
2023/05/09 16:28:29;;;;;;;;;;;;;;;;;;5070567;28;19987;-69
2023/05/09 16:30:56;;;;;;;;;;;;;;;;;;5065068;28;20224;-68
2023/05/09 16:33:23;;;;;;;;;;;;;;;;;;5069830;28;19972;-67
2023/05/09 16:35:52;;;;;;;;;;;;;;;;;;5068334;28;19978;-69
2023/05/09 16:38:20;;;;;;;;;;;;;;;;;;5070804;28;20342;-69
2023/05/09 16:40:48;;;;;;;;;;;;;;;;;;5070835;28;19924;-68
2023/05/09 16:43:18;;;;;;;;;;;;;;;;;;5069709;28;19924;-67
2023/05/09 16:45:46;;;;;;;;;;;;;;;;;;5071192;28;19928;-67